Time;durP1;ratioP1;P1;durP2;ratioP2;P2;SDS_P1;SDS_P2;PMS_P1;PMS_P2;Temp;Humidity;BMP_temperature;BMP_pressure;BME280_temperature;BME280_humidity;BME280_pressure;Samples;Min_cycle;Max_cycle;Signal;HPM_P1;HPM_P2
2022/10/12 00:01:23;;;;;;;34.78;16.52;;;13.80;99.90;;;;;;5059067;28;20051;-75
2022/10/12 00:03:49;;;;;;;28.70;17.75;;;13.80;99.90;;;;;;5042707;28;20051;-75
2022/10/12 00:06:18;;;;;;;30.92;17.20;;;13.70;99.90;;;;;;5045028;28;20029;-74
2022/10/12 00:08:44;;;;;;;30.73;16.60;;;13.80;99.90;;;;;;5044788;28;20036;-75
2022/10/12 00:11:32;;;;;;;35.03;16.77;;;13.80;99.90;;;;;;5043965;28;20459;-73
2022/10/12 00:13:58;;;;;;;33.22;16.17;;;13.80;99.90;;;;;;5044103;28;20079;-74
2022/10/12 00:16:24;;;;;;;37.55;16.65;;;13.80;99.90;;;;;;5045487;28;20020;-75
2022/10/12 00:18:54;;;;;;;31.02;17.20;;;13.80;99.90;;;;;;5043094;28;20033;-74
2022/10/12 00:21:22;;;;;;;31.50;17.92;;;13.70;99.90;;;;;;5044718;28;20032;-76
2022/10/12 00:23:48;;;;;;;29.23;17.88;;;13.80;99.90;;;;;;5042455;28;20033;-75
2022/10/12 00:26:19;;;;;;;32.90;17.70;;;13.70;99.90;;;;;;5043573;28;20134;-74
2022/10/12 00:28:46;;;;;;;29.45;17.23;;;13.70;99.90;;;;;;5058249;28;20029;-76
2022/10/12 00:31:17;;;;;;;28.65;17.05;;;13.70;99.90;;;;;;5044993;28;20116;-76
2022/10/12 00:33:43;;;;;;;32.25;18.27;;;13.70;99.90;;;;;;5048163;28;20148;-74
2022/10/12 00:36:18;;;;;;;31.48;17.92;;;13.70;99.90;;;;;;5042540;28;20112;-74
2022/10/12 00:38:44;;;;;;;36.53;16.88;;;13.70;99.90;;;;;;5045554;28;20094;-75
2022/10/12 00:41:11;;;;;;;32.90;19.05;;;13.70;99.90;;;;;;5048407;28;20068;-76
2022/10/12 00:43:40;;;;;;;37.50;18.00;;;13.70;99.90;;;;;;5046253;28;20048;-75
2022/10/12 00:46:30;;;;;;;30.08;17.75;;;13.60;99.90;;;;;;5044263;28;20028;-75
2022/10/12 00:49:11;;;;;;;28.05;16.88;;;13.70;99.90;;;;;;5037254;28;20044;-76
2022/10/12 00:51:39;;;;;;;30.95;16.92;;;13.70;99.90;;;;;;5043537;28;20025;-76
2022/10/12 00:54:09;;;;;;;27.17;16.63;;;13.60;99.90;;;;;;5039333;28;20121;-76
2022/10/12 00:56:39;;;;;;;38.75;16.25;;;13.60;99.90;;;;;;5042907;28;20024;-76
2022/10/12 00:59:10;;;;;;;36.78;17.95;;;13.60;99.90;;;;;;5048924;28;20261;-75
2022/10/12 01:01:37;;;;;;;30.33;17.45;;;13.50;99.90;;;;;;5059798;28;20150;-75
2022/10/12 01:04:04;;;;;;;30.88;16.45;;;13.50;99.90;;;;;;5047562;28;20033;-76
2022/10/12 01:06:30;;;;;;;37.05;17.13;;;13.50;99.90;;;;;;5046282;28;20020;-75
2022/10/12 01:08:56;;;;;;;31.00;18.13;;;13.40;99.90;;;;;;5047152;28;20044;-76
2022/10/12 01:11:22;;;;;;;29.50;16.95;;;13.40;99.90;;;;;;5045099;28;20590;-76
2022/10/12 01:13:48;;;;;;;30.23;17.92;;;13.30;99.90;;;;;;5062002;28;20025;-75
2022/10/12 01:16:24;;;;;;;30.60;16.80;;;13.30;99.90;;;;;;5056453;28;20398;-76
2022/10/12 01:18:57;;;;;;;28.88;15.90;;;13.30;99.90;;;;;;5040693;28;20022;-76
2022/10/12 01:21:24;;;;;;;33.17;17.30;;;13.20;99.90;;;;;;5060792;28;20051;-74
2022/10/12 01:24:12;;;;;;;26.83;15.75;;;13.20;99.90;;;;;;5047792;28;20112;-75
2022/10/12 01:26:58;;;;;;;28.73;16.13;;;13.20;99.90;;;;;;5046098;28;20101;-76
2022/10/12 01:30:02;;;;;;;29.23;15.80;;;13.10;99.90;;;;;;5060668;28;20030;-76
2022/10/12 01:32:28;;;;;;;32.30;16.58;;;13.10;99.90;;;;;;5045005;28;20033;-75
2022/10/12 01:35:15;;;;;;;31.85;17.42;;;13.00;99.90;;;;;;5043534;28;20025;-75
2022/10/12 01:37:53;;;;;;;30.10;17.27;;;13.00;99.90;;;;;;5044978;28;20099;-76
2022/10/12 01:40:31;;;;;;;34.92;18.73;;;12.90;99.90;;;;;;5043920;28;20048;-76
2022/10/12 01:42:57;;;;;;;36.58;18.17;;;13.00;99.90;;;;;;5058423;28;20128;-75
2022/10/12 01:45:23;;;;;;;34.47;19.60;;;12.90;99.90;;;;;;5060393;28;20115;-72
2022/10/12 01:47:52;;;;;;;36.65;19.23;;;12.90;99.90;;;;;;5059099;28;20047;-71
2022/10/12 01:50:20;;;;;;;35.50;18.38;;;12.80;99.90;;;;;;5044338;28;20045;-72
2022/10/12 01:53:07;;;;;;;38.80;18.83;;;12.80;99.90;;;;;;5040665;28;20072;-72
2022/10/12 01:55:42;;;;;;;39.88;20.13;;;12.90;99.90;;;;;;5044169;28;20033;-72
2022/10/12 01:58:11;;;;;;;45.85;20.05;;;12.90;99.90;;;;;;5046339;28;20112;-72
2022/10/12 02:00:45;;;;;;;47.72;20.65;;;12.90;99.90;;;;;;5046236;28;20047;-72
2022/10/12 02:03:40;;;;;;;48.72;21.80;;;12.90;99.90;;;;;;5042423;28;20056;-72
2022/10/12 02:06:17;;;;;;;39.80;20.48;;;12.90;99.90;;;;;;5037684;28;20055;-72
2022/10/12 02:08:58;;;;;;;45.13;22.23;;;12.90;99.90;;;;;;5055543;28;20067;-72
2022/10/12 02:11:25;;;;;;;45.42;23.88;;;12.90;99.90;;;;;;5042551;28;20029;-72
2022/10/12 02:14:02;;;;;;;41.88;22.92;;;12.90;99.90;;;;;;5041999;28;20083;-72
2022/10/12 02:16:34;;;;;;;41.65;21.98;;;12.90;99.90;;;;;;5042106;28;20071;-73
2022/10/12 02:19:01;;;;;;;36.83;18.20;;;13.00;99.90;;;;;;5042614;28;20053;-72
2022/10/12 02:21:30;;;;;;;33.13;18.55;;;13.00;99.90;;;;;;5059599;28;20033;-72
2022/10/12 02:23:59;;;;;;;39.92;19.88;;;13.00;99.90;;;;;;5044365;28;20479;-72
2022/10/12 02:26:26;;;;;;;37.72;20.70;;;13.00;99.90;;;;;;5045039;28;20049;-72
2022/10/12 02:28:52;;;;;;;43.13;21.92;;;13.00;99.90;;;;;;5044258;28;20196;-73
2022/10/12 02:31:36;;;;;;;48.13;22.02;;;13.10;99.90;;;;;;5043534;28;20108;-73
2022/10/12 02:34:11;;;;;;;45.83;22.05;;;13.10;99.90;;;;;;5042961;28;20040;-73
2022/10/12 02:37:00;;;;;;;43.15;21.00;;;13.10;99.90;;;;;;5058102;28;20135;-73
2022/10/12 02:39:36;;;;;;;40.33;21.60;;;13.10;99.90;;;;;;5043200;28;20100;-73
2022/10/12 02:42:09;;;;;;;44.33;21.65;;;13.10;99.90;;;;;;5043656;28;20486;-75
2022/10/12 02:44:39;;;;;;;37.55;21.85;;;13.10;99.90;;;;;;5043601;28;20123;-74
2022/10/12 02:47:07;;;;;;;44.35;21.52;;;13.10;99.90;;;;;;5042917;28;20112;-73
2022/10/12 02:49:34;;;;;;;37.10;19.98;;;13.10;99.90;;;;;;5040220;28;21368;-74
2022/10/12 02:52:02;;;;;;;37.38;20.35;;;13.10;99.90;;;;;;5040919;28;20077;-74
2022/10/12 02:54:29;;;;;;;33.83;19.10;;;13.10;99.90;;;;;;5057887;28;20029;-75
2022/10/12 02:56:55;;;;;;;35.75;20.33;;;13.10;99.90;;;;;;5044650;28;20029;-73
2022/10/12 02:59:20;;;;;;;38.15;20.90;;;13.10;99.90;;;;;;5042652;28;20028;-73
2022/10/12 03:01:46;;;;;;;34.15;19.42;;;13.10;99.90;;;;;;5044895;28;20030;-73
2022/10/12 03:04:12;;;;;;;44.13;21.48;;;13.10;99.90;;;;;;5040686;28;20025;-73
2022/10/12 03:06:37;;;;;;;40.75;20.90;;;13.10;99.90;;;;;;5040926;28;20029;-73
2022/10/12 03:09:04;;;;;;;39.47;20.75;;;13.10;99.90;;;;;;5044780;28;20025;-73
2022/10/12 03:11:30;;;;;;;35.63;20.23;;;13.10;99.90;;;;;;5043453;28;20029;-73
2022/10/12 03:13:56;;;;;;;38.42;20.48;;;13.00;99.90;;;;;;5038936;28;20132;-73
2022/10/12 03:16:23;;;;;;;39.13;20.35;;;13.10;99.90;;;;;;5045449;28;20025;-73
2022/10/12 03:18:49;;;;;;;43.47;22.20;;;13.00;99.90;;;;;;5042571;28;20029;-73
2022/10/12 03:21:15;;;;;;;42.85;21.45;;;13.00;99.90;;;;;;5046834;28;20052;-73
2022/10/12 03:23:40;;;;;;;41.13;20.20;;;13.00;99.90;;;;;;5049976;28;20115;-73
2022/10/12 03:26:07;;;;;;;40.95;21.20;;;13.00;99.90;;;;;;5045014;28;20029;-73
2022/10/12 03:28:33;;;;;;;43.03;21.25;;;13.00;99.90;;;;;;5043530;28;20028;-73
2022/10/12 03:30:58;;;;;;;47.10;21.92;;;13.00;99.90;;;;;;5044774;28;20037;-74
2022/10/12 03:33:24;;;;;;;39.83;22.50;;;13.10;99.90;;;;;;5057964;28;20416;-74
2022/10/12 03:35:50;;;;;;;44.38;21.85;;;13.10;99.90;;;;;;5046865;28;20102;-73
2022/10/12 03:38:17;;;;;;;47.97;22.98;;;13.10;99.90;;;;;;5048458;28;20025;-74
2022/10/12 03:40:43;;;;;;;49.05;23.33;;;13.10;99.90;;;;;;5043948;28;20482;-74
2022/10/12 03:43:09;;;;;;;40.95;20.85;;;13.10;99.90;;;;;;5062448;28;20439;-73
2022/10/12 03:45:35;;;;;;;39.95;21.65;;;13.10;99.90;;;;;;5043476;28;20116;-74
2022/10/12 03:48:01;;;;;;;41.90;22.73;;;13.20;99.90;;;;;;5045259;28;20112;-74
2022/10/12 03:50:27;;;;;;;42.33;22.25;;;13.20;99.90;;;;;;5045456;28;20057;-73
2022/10/12 03:52:53;;;;;;;37.05;21.30;;;13.20;99.90;;;;;;5046814;28;20095;-73
2022/10/12 03:55:19;;;;;;;44.95;21.15;;;13.20;99.90;;;;;;5042691;28;20052;-74
2022/10/12 03:57:44;;;;;;;42.05;22.25;;;13.20;99.90;;;;;;5048870;28;20913;-74
2022/10/12 04:00:12;;;;;;;39.30;22.50;;;13.20;99.90;;;;;;5041329;28;20076;-74
2022/10/12 04:02:38;;;;;;;47.17;23.77;;;13.20;99.90;;;;;;5043947;28;20140;-73
2022/10/12 04:05:04;;;;;;;38.60;20.85;;;13.20;99.90;;;;;;5048354;28;20029;-74
2022/10/12 04:07:30;;;;;;;54.20;22.10;;;13.20;99.90;;;;;;5047580;28;20386;-74
2022/10/12 04:09:56;;;;;;;40.72;23.40;;;13.20;99.90;;;;;;5044127;28;20047;-73
2022/10/12 04:12:21;;;;;;;37.92;22.38;;;13.20;99.90;;;;;;5042854;28;20025;-74
2022/10/12 04:14:47;;;;;;;45.60;23.15;;;13.20;99.90;;;;;;5045059;28;20021;-74
2022/10/12 04:17:15;;;;;;;51.53;21.88;;;13.20;99.90;;;;;;5048254;28;20500;-74
2022/10/12 04:19:40;;;;;;;46.58;22.25;;;13.20;99.90;;;;;;5046252;28;20151;-74
2022/10/12 04:22:06;;;;;;;41.25;22.55;;;13.20;99.90;;;;;;5062601;28;20029;-74
2022/10/12 04:24:31;;;;;;;40.85;22.13;;;13.20;99.90;;;;;;5045290;28;20441;-74
2022/10/12 04:26:57;;;;;;;41.85;19.92;;;13.20;99.90;;;;;;5046113;28;20025;-73
2022/10/12 04:29:23;;;;;;;41.53;21.70;;;13.20;99.90;;;;;;5057657;28;20111;-73
2022/10/12 04:31:48;;;;;;;44.88;22.40;;;13.20;99.90;;;;;;5043693;28;20070;-72
2022/10/12 04:34:14;;;;;;;39.70;19.25;;;13.30;99.90;;;;;;5062887;28;20508;-74
2022/10/12 04:36:39;;;;;;;43.17;21.08;;;13.30;99.90;;;;;;5045835;28;20025;-74
2022/10/12 04:39:05;;;;;;;45.10;20.88;;;13.30;99.90;;;;;;5063399;28;20033;-73
2022/10/12 04:41:31;;;;;;;36.40;20.45;;;13.30;99.90;;;;;;5044932;28;20060;-73
2022/10/12 04:43:57;;;;;;;40.83;21.25;;;13.30;99.90;;;;;;5041664;28;20082;-73
2022/10/12 04:46:22;;;;;;;39.15;19.90;;;13.30;99.90;;;;;;5043084;28;20060;-73
2022/10/12 04:48:48;;;;;;;40.28;20.10;;;13.30;99.90;;;;;;5050318;28;20489;-73
2022/10/12 04:51:13;;;;;;;37.95;20.17;;;13.30;99.90;;;;;;5041103;28;20108;-73
2022/10/12 04:53:39;;;;;;;41.78;20.52;;;13.30;99.90;;;;;;5046088;28;20355;-73
2022/10/12 04:56:05;;;;;;;42.67;19.98;;;13.40;99.90;;;;;;5044776;28;20029;-73
2022/10/12 04:58:31;;;;;;;40.53;20.85;;;13.40;99.90;;;;;;5033057;28;20025;-72
2022/10/12 05:00:57;;;;;;;35.63;20.20;;;13.40;99.90;;;;;;5043845;28;20120;-72
2022/10/12 05:03:23;;;;;;;35.20;18.95;;;13.40;99.90;;;;;;5046200;28;20071;-74
2022/10/12 05:05:49;;;;;;;35.35;19.23;;;13.40;99.90;;;;;;5042811;28;20486;-73
2022/10/12 05:08:15;;;;;;;36.53;18.75;;;13.30;99.90;;;;;;5046614;28;20053;-73
2022/10/12 05:10:41;;;;;;;33.40;18.50;;;13.40;99.90;;;;;;5044077;28;20087;-74
2022/10/12 05:13:06;;;;;;;34.30;18.45;;;13.40;99.90;;;;;;5049573;28;20029;-73
2022/10/12 05:15:32;;;;;;;30.30;17.00;;;13.40;99.90;;;;;;5040099;28;20031;-73
2022/10/12 05:17:58;;;;;;;38.70;17.25;;;13.40;99.90;;;;;;5047190;28;20050;-73
2022/10/12 05:20:24;;;;;;;39.15;17.83;;;13.40;99.90;;;;;;5047265;28;20040;-74
2022/10/12 05:22:50;;;;;;;31.05;16.60;;;13.40;99.90;;;;;;5043645;28;20029;-74
2022/10/12 05:25:16;;;;;;;31.85;17.25;;;13.40;99.90;;;;;;5043269;28;20032;-74
2022/10/12 05:27:41;;;;;;;33.15;17.05;;;13.40;99.90;;;;;;5046354;28;20033;-74
2022/10/12 05:30:08;;;;;;;36.40;18.33;;;13.40;99.90;;;;;;5060129;28;20025;-74
2022/10/12 05:32:34;;;;;;;33.35;16.73;;;13.40;99.90;;;;;;5047484;28;20541;-74
2022/10/12 05:35:00;;;;;;;34.53;17.73;;;13.50;99.90;;;;;;5041900;28;20021;-74
2022/10/12 05:37:25;;;;;;;28.98;18.05;;;13.50;99.90;;;;;;5044668;28;20048;-74
2022/10/12 05:39:51;;;;;;;27.35;17.27;;;13.50;99.90;;;;;;5038617;28;20039;-74
2022/10/12 05:42:17;;;;;;;32.15;16.92;;;13.50;99.90;;;;;;5043268;28;20029;-74
2022/10/12 05:44:43;;;;;;;33.17;17.25;;;13.50;99.90;;;;;;5044308;28;20397;-73
2022/10/12 05:47:09;;;;;;;33.60;17.50;;;13.50;99.90;;;;;;5045341;28;20029;-73
2022/10/12 05:49:34;;;;;;;32.42;17.73;;;13.50;99.90;;;;;;5044307;28;21388;-73
2022/10/12 05:52:00;;;;;;;31.90;17.42;;;13.50;99.90;;;;;;5044320;28;20049;-74
2022/10/12 05:54:26;;;;;;;35.25;18.40;;;13.50;99.90;;;;;;5044368;28;20104;-74
2022/10/12 05:56:52;;;;;;;34.38;18.83;;;13.50;99.90;;;;;;5044073;28;20036;-74
2022/10/12 05:59:17;;;;;;;30.92;18.08;;;13.50;99.90;;;;;;5045975;28;20025;-71
2022/10/12 06:01:43;;;;;;;31.60;18.02;;;13.50;99.90;;;;;;5044389;28;20055;-71
2022/10/12 06:04:09;;;;;;;31.05;18.15;;;13.60;99.90;;;;;;5043569;28;20021;-71
2022/10/12 06:06:35;;;;;;;36.60;21.02;;;13.70;99.90;;;;;;5039558;28;20021;-71
2022/10/12 06:09:00;;;;;;;33.72;19.00;;;13.70;99.90;;;;;;5045910;28;20044;-71
2022/10/12 06:11:26;;;;;;;34.00;20.10;;;13.70;99.90;;;;;;5043146;28;20091;-70
2022/10/12 06:13:53;;;;;;;38.15;19.77;;;13.70;99.90;;;;;;5040420;28;20537;-71
2022/10/12 06:16:19;;;;;;;40.17;21.30;;;13.70;99.90;;;;;;5040853;28;20036;-73
2022/10/12 06:18:45;;;;;;;36.15;19.63;;;13.80;99.90;;;;;;5050443;28;20044;-73
2022/10/12 06:21:10;;;;;;;38.15;18.65;;;13.80;99.90;;;;;;5036994;28;21177;-73
2022/10/12 06:23:36;;;;;;;31.23;18.27;;;13.80;99.90;;;;;;5041091;28;20047;-73
2022/10/12 06:26:02;;;;;;;35.40;17.95;;;13.80;99.90;;;;;;5041979;28;20049;-73
2022/10/12 06:28:27;;;;;;;33.15;18.23;;;13.80;99.90;;;;;;5035449;28;20413;-74
2022/10/12 06:30:55;;;;;;;29.67;17.58;;;13.80;99.90;;;;;;5039539;28;20033;-74
2022/10/12 06:33:21;;;;;;;30.25;17.25;;;13.80;99.90;;;;;;5038956;28;20021;-73
2022/10/12 06:35:47;;;;;;;34.40;16.83;;;13.90;99.90;;;;;;5040138;28;20029;-74
2022/10/12 06:38:13;;;;;;;35.00;19.10;;;13.90;99.90;;;;;;5043786;28;20032;-72
2022/10/12 06:40:38;;;;;;;31.23;18.50;;;13.90;99.90;;;;;;5039512;28;20029;-74
2022/10/12 06:43:04;;;;;;;28.40;15.93;;;13.90;99.90;;;;;;5041723;28;20065;-73
2022/10/12 06:45:29;;;;;;;29.10;16.25;;;13.90;99.90;;;;;;5054560;28;20036;-71
2022/10/12 06:47:56;;;;;;;33.13;17.50;;;13.90;99.90;;;;;;5045718;28;20021;-73
2022/10/12 06:50:22;;;;;;;28.05;16.27;;;13.90;99.90;;;;;;5043381;28;20026;-73
2022/10/12 06:52:48;;;;;;;30.92;16.02;;;13.90;99.90;;;;;;5042336;28;20032;-72
2022/10/12 06:55:13;;;;;;;33.75;15.73;;;14.00;99.90;;;;;;5047109;28;20029;-73
2022/10/12 06:57:39;;;;;;;24.13;14.35;;;13.90;99.90;;;;;;5048935;28;20509;-72
2022/10/12 07:00:06;;;;;;;28.58;15.85;;;14.00;99.90;;;;;;5043165;28;20033;-73
2022/10/12 07:02:33;;;;;;;27.25;15.07;;;14.00;99.90;;;;;;5044813;28;20047;-73
2022/10/12 07:04:58;;;;;;;29.13;15.30;;;14.00;99.90;;;;;;5049712;28;20039;-74
2022/10/12 07:07:24;;;;;;;29.23;15.82;;;14.00;99.90;;;;;;5046456;28;20025;-73
2022/10/12 07:09:51;;;;;;;25.42;14.10;;;14.00;99.90;;;;;;5045260;28;20091;-73
2022/10/12 07:12:16;;;;;;;24.80;13.23;;;14.00;99.90;;;;;;5059362;28;20033;-73
2022/10/12 07:14:42;;;;;;;25.65;14.57;;;14.00;99.90;;;;;;5046614;28;20037;-73
2022/10/12 07:17:08;;;;;;;28.13;13.98;;;14.10;99.90;;;;;;5044817;28;20025;-73
2022/10/12 07:19:33;;;;;;;27.98;13.63;;;14.10;99.90;;;;;;5043367;28;20120;-73
2022/10/12 07:22:00;;;;;;;27.38;13.95;;;14.10;99.90;;;;;;5047578;28;20520;-73
2022/10/12 07:24:34;;;;;;;27.85;13.75;;;14.10;99.90;;;;;;5043146;28;20091;-73
2022/10/12 07:27:00;;;;;;;27.92;13.55;;;14.10;99.90;;;;;;5048006;28;20040;-72
2022/10/12 07:29:25;;;;;;;24.83;13.35;;;14.10;99.90;;;;;;5045355;28;21420;-73
2022/10/12 07:31:51;;;;;;;21.20;12.43;;;14.10;99.90;;;;;;5033947;28;20029;-72
2022/10/12 07:34:17;;;;;;;22.15;11.80;;;14.20;99.90;;;;;;5043385;28;20017;-73
2022/10/12 07:36:43;;;;;;;22.50;12.52;;;14.20;99.90;;;;;;5043618;28;20021;-72
2022/10/12 07:39:09;;;;;;;27.65;13.32;;;14.20;99.90;;;;;;5043980;28;20032;-74
2022/10/12 07:41:35;;;;;;;21.27;11.85;;;14.20;99.90;;;;;;5060829;28;20033;-72
2022/10/12 07:44:01;;;;;;;21.63;11.70;;;14.20;99.90;;;;;;5045185;28;20436;-73
2022/10/12 07:46:26;;;;;;;18.13;10.88;;;14.30;99.90;;;;;;5048042;28;20041;-72
2022/10/12 07:48:52;;;;;;;20.60;11.20;;;14.30;99.90;;;;;;5045548;28;20048;-73
2022/10/12 07:51:18;;;;;;;18.05;10.23;;;14.30;99.90;;;;;;5043606;28;20144;-73
2022/10/12 07:53:43;;;;;;;20.52;10.00;;;14.30;99.90;;;;;;5045401;28;20028;-73
2022/10/12 07:56:14;;;;;;;20.40;10.43;;;14.30;99.90;;;;;;5043876;28;20041;-73
2022/10/12 07:58:40;;;;;;;17.35;9.80;;;14.40;99.90;;;;;;5038794;28;20017;-73
2022/10/12 08:01:07;;;;;;;18.27;10.02;;;14.40;99.90;;;;;;5044137;28;20025;-74
2022/10/12 08:03:34;;;;;;;16.27;9.18;;;14.40;99.90;;;;;;5041901;28;20032;-73
2022/10/12 08:06:06;;;;;;;18.92;9.35;;;14.50;99.90;;;;;;5046816;28;20029;-74
2022/10/12 08:08:31;;;;;;;15.18;9.38;;;14.40;99.90;;;;;;5057173;28;20138;-74
2022/10/12 08:11:00;;;;;;;17.73;9.35;;;14.40;99.90;;;;;;5044451;28;20048;-73
2022/10/12 08:13:25;;;;;;;19.38;8.77;;;14.50;99.90;;;;;;5044437;28;20098;-74
2022/10/12 08:15:51;;;;;;;14.63;8.40;;;14.50;99.90;;;;;;5044672;28;20053;-74
2022/10/12 08:18:17;;;;;;;16.92;8.82;;;14.60;99.90;;;;;;5044065;28;20390;-75
2022/10/12 08:20:42;;;;;;;15.23;8.07;;;14.60;99.90;;;;;;5047444;28;20028;-74
2022/10/12 08:23:08;;;;;;;16.83;7.90;;;14.70;99.90;;;;;;5048606;28;20116;-74
2022/10/12 08:25:36;;;;;;;13.65;8.40;;;14.70;99.90;;;;;;5044398;28;20027;-74
2022/10/12 08:28:03;;;;;;;12.88;8.25;;;14.80;99.90;;;;;;5044628;28;20014;-74
2022/10/12 08:30:28;;;;;;;15.50;8.20;;;14.90;99.90;;;;;;5044187;28;20021;-73
2022/10/12 08:32:54;;;;;;;12.35;7.85;;;14.90;99.90;;;;;;5046139;28;20391;-72
2022/10/12 08:35:20;;;;;;;10.73;7.90;;;15.00;99.90;;;;;;5045798;28;20033;-72
2022/10/12 08:37:45;;;;;;;12.05;7.22;;;15.00;99.90;;;;;;5048301;28;20701;-74
2022/10/12 08:40:32;;;;;;;12.48;7.63;;;15.00;99.90;;;;;;5057988;28;20470;-73
2022/10/12 08:43:25;;;;;;;10.45;6.85;;;15.10;99.90;;;;;;5041785;28;20474;-73
2022/10/12 08:45:58;;;;;;;12.07;6.40;;;15.10;99.90;;;;;;5040364;28;20025;-73
2022/10/12 08:48:28;;;;;;;14.75;6.68;;;15.10;99.90;;;;;;5039894;28;20032;-74
2022/10/12 08:51:07;;;;;;;12.13;6.15;;;15.20;99.90;;;;;;5041018;28;20036;-74
2022/10/12 08:54:13;;;;;;;12.70;5.90;;;15.20;99.90;;;;;;5044271;28;20084;-75
2022/10/12 08:56:40;;;;;;;9.20;6.05;;;15.20;99.90;;;;;;5042405;28;20028;-74
2022/10/12 08:59:16;;;;;;;10.98;6.00;;;15.20;99.90;;;;;;5040950;28;20029;-72
2022/10/12 09:02:01;;;;;;;20.55;6.35;;;15.20;99.90;;;;;;5043956;28;20029;-73
2022/10/12 09:04:38;;;;;;;12.40;6.07;;;15.20;99.90;;;;;;5040481;28;20033;-73
2022/10/12 09:07:22;;;;;;;10.45;6.40;;;15.20;99.90;;;;;;5043464;28;20039;-73
2022/10/12 09:10:15;;;;;;;10.90;6.22;;;15.20;99.90;;;;;;5040130;28;20021;-73
2022/10/12 09:12:53;;;;;;;12.05;5.80;;;15.20;99.90;;;;;;5037296;28;20111;-73
2022/10/12 09:15:24;;;;;;;14.02;5.43;;;15.30;99.90;;;;;;5039635;28;20037;-72
2022/10/12 09:17:59;;;;;;;10.55;5.32;;;15.30;99.90;;;;;;5044445;28;20043;-72
2022/10/12 09:20:31;;;;;;;8.10;5.05;;;15.30;99.90;;;;;;5038214;28;20025;-72
2022/10/12 09:23:04;;;;;;;8.43;5.10;;;15.40;99.90;;;;;;5036657;28;20544;-73
2022/10/12 09:25:30;;;;;;;10.27;5.55;;;15.40;99.90;;;;;;5063622;28;20029;-73
2022/10/12 09:28:19;;;;;;;10.18;5.20;;;15.40;99.90;;;;;;5041275;28;20638;-73
2022/10/12 09:31:09;;;;;;;9.32;5.47;;;15.40;99.90;;;;;;5040789;28;20067;-74
2022/10/12 09:33:47;;;;;;;10.93;5.38;;;15.50;99.90;;;;;;5027111;28;20490;-73
2022/10/12 09:36:19;;;;;;;9.43;5.55;;;15.40;99.90;;;;;;5046259;28;20483;-74
2022/10/12 09:38:46;;;;;;;11.32;6.18;;;15.50;99.90;;;;;;5042322;28;20109;-74
2022/10/12 09:41:23;;;;;;;12.27;6.45;;;15.50;99.90;;;;;;5042637;28;20060;-73
2022/10/12 09:43:58;;;;;;;10.48;6.13;;;15.50;99.90;;;;;;5040126;28;20029;-74
2022/10/12 09:46:57;;;;;;;10.35;5.50;;;15.50;99.90;;;;;;5044605;28;20074;-74
2022/10/12 09:49:41;;;;;;;12.57;6.68;;;15.60;99.90;;;;;;5041474;28;20032;-73
2022/10/12 09:52:07;;;;;;;11.75;6.38;;;15.60;99.90;;;;;;5055187;28;20029;-74
2022/10/12 09:54:33;;;;;;;13.88;6.13;;;15.60;99.90;;;;;;5046949;28;20124;-73
2022/10/12 09:56:59;;;;;;;9.82;5.78;;;15.70;99.90;;;;;;5053970;28;20040;-74
2022/10/12 09:59:38;;;;;;;9.65;6.30;;;15.70;99.90;;;;;;5042649;28;20478;-74
2022/10/12 10:02:15;;;;;;;8.68;5.95;;;15.70;99.90;;;;;;5042927;28;20539;-73
2022/10/12 10:04:43;;;;;;;10.70;6.25;;;15.70;99.90;;;;;;5046162;28;20162;-73
2022/10/12 10:07:34;;;;;;;12.63;6.55;;;15.70;99.90;;;;;;5045653;28;20028;-73
2022/10/12 10:10:07;;;;;;;8.38;5.45;;;15.70;99.90;;;;;;5055931;28;20040;-74
2022/10/12 10:12:36;;;;;;;12.38;6.88;;;15.70;99.90;;;;;;5042619;28;20421;-74
2022/10/12 10:15:01;;;;;;;11.70;6.75;;;15.80;99.90;;;;;;5040641;28;20458;-74
2022/10/12 10:17:30;;;;;;;11.52;6.47;;;15.80;99.90;;;;;;5047090;28;20070;-74
2022/10/12 10:19:59;;;;;;;11.77;6.78;;;15.80;99.90;;;;;;5044977;28;20520;-74
2022/10/12 10:22:25;;;;;;;9.88;6.38;;;15.80;99.90;;;;;;5039051;28;20033;-73
2022/10/12 10:24:57;;;;;;;10.13;6.05;;;15.80;99.90;;;;;;5046845;28;20048;-73
2022/10/12 10:27:38;;;;;;;12.57;6.28;;;15.80;99.90;;;;;;5049738;28;20025;-73
2022/10/12 10:30:16;;;;;;;10.48;6.45;;;15.90;99.90;;;;;;5045314;28;20051;-74
2022/10/12 10:32:45;;;;;;;11.07;6.35;;;15.90;99.90;;;;;;5043521;28;20438;-72
2022/10/12 10:35:11;;;;;;;13.65;7.15;;;15.90;99.90;;;;;;5049818;28;20106;-72
2022/10/12 10:37:45;;;;;;;10.70;5.88;;;16.00;99.90;;;;;;5047092;28;20029;-72
2022/10/12 10:40:24;;;;;;;11.15;6.07;;;16.00;99.90;;;;;;5045142;28;20219;-72
2022/10/12 10:42:53;;;;;;;11.73;6.00;;;16.00;99.90;;;;;;5048330;28;20040;-72
2022/10/12 10:45:28;;;;;;;13.50;6.28;;;16.10;99.90;;;;;;5049709;28;20029;-72
2022/10/12 10:48:00;;;;;;;9.35;5.07;;;16.10;99.90;;;;;;5044178;28;20389;-72
2022/10/12 10:50:35;;;;;;;11.60;5.28;;;16.10;99.90;;;;;;5043386;28;20029;-72
2022/10/12 10:53:20;;;;;;;10.48;5.03;;;16.10;99.90;;;;;;5048182;28;20083;-76
2022/10/12 10:55:55;;;;;;;11.43;5.65;;;16.20;99.90;;;;;;5064093;28;20029;-75
2022/10/12 10:58:51;;;;;;;12.18;6.50;;;16.20;99.90;;;;;;5048739;28;20371;-75
2022/10/12 11:01:19;;;;;;;15.35;6.50;;;16.20;99.90;;;;;;5051237;28;20033;-76
2022/10/12 11:04:17;;;;;;;12.77;6.60;;;16.30;99.90;;;;;;5044244;28;20029;-76
2022/10/12 11:06:51;;;;;;;14.50;6.75;;;16.30;99.90;;;;;;5045645;28;20037;-75
2022/10/12 11:09:20;;;;;;;;;;;16.30;99.90;;;;;;5045000;28;20021;-75
2022/10/12 11:12:01;;;;;;;14.88;7.40;;;16.40;99.90;;;;;;5046563;28;19931;-75
2022/10/12 11:14:33;;;;;;;14.23;7.43;;;16.50;99.90;;;;;;5041180;28;20490;-74
2022/10/12 11:17:06;;;;;;;15.55;8.00;;;16.50;99.90;;;;;;5041490;28;20108;-75
2022/10/12 11:19:42;;;;;;;11.63;7.15;;;16.60;99.90;;;;;;5046358;28;20049;-75
2022/10/12 11:22:24;;;;;;;13.48;7.40;;;16.70;99.90;;;;;;5048956;28;20029;-75
2022/10/12 11:25:07;;;;;;;12.55;6.25;;;16.70;99.90;;;;;;5046240;28;20029;-75
2022/10/12 11:27:36;;;;;;;12.38;6.28;;;16.70;99.90;;;;;;5047366;28;20025;-75
2022/10/12 11:30:11;;;;;;;15.45;7.55;;;16.80;99.90;;;;;;5044315;28;20095;-75
2022/10/12 11:32:43;;;;;;;12.80;7.25;;;16.80;99.90;;;;;;5059288;28;20030;-73
2022/10/12 11:35:27;;;;;;;10.98;5.97;;;16.90;99.90;;;;;;5046453;28;20111;-75
2022/10/12 11:37:59;;;;;;;;;;;16.90;99.90;;;;;;5048172;28;20013;-74
2022/10/12 11:40:32;;;;;;;17.02;6.85;;;16.90;99.90;;;;;;5045041;28;19916;-75
2022/10/12 11:43:03;;;;;;;15.38;7.90;;;16.90;99.90;;;;;;5060959;28;20028;-77
2022/10/12 11:45:35;;;;;;;14.13;6.93;;;16.90;99.90;;;;;;5051474;28;20033;-77
2022/10/12 11:48:08;;;;;;;15.45;7.07;;;16.90;99.90;;;;;;5051900;28;20025;-75
2022/10/12 11:50:47;;;;;;;14.47;7.57;;;16.90;99.90;;;;;;5049980;28;20389;-77
2022/10/12 11:53:20;;;;;;;19.80;7.95;;;16.90;99.90;;;;;;5050116;28;20349;-77
2022/10/12 11:56:00;;;;;;;18.45;8.10;;;16.90;99.90;;;;;;5050889;28;20021;-77
2022/10/12 11:58:29;;;;;;;14.18;7.47;;;16.90;99.90;;;;;;5042766;28;20025;-75
2022/10/12 12:01:03;;;;;;;14.77;7.68;;;16.90;99.90;;;;;;5043521;28;20087;-77
2022/10/12 12:03:44;;;;;;;18.13;7.90;;;16.90;99.90;;;;;;5061280;28;20079;-77
2022/10/12 12:06:27;;;;;;;15.57;8.60;;;16.80;99.90;;;;;;5045581;28;20413;-77
2022/10/12 12:09:02;;;;;;;12.68;7.72;;;16.80;99.90;;;;;;5046973;28;20474;-77
2022/10/12 12:11:34;;;;;;;16.83;7.65;;;16.80;99.90;;;;;;5044801;28;20036;-77
2022/10/12 12:14:25;;;;;;;12.07;6.93;;;16.80;99.90;;;;;;5038142;28;20029;-77
2022/10/12 12:17:13;;;;;;;18.83;7.38;;;16.90;99.90;;;;;;5044238;28;20021;-77
2022/10/12 12:19:41;;;;;;;11.80;7.25;;;17.00;99.90;;;;;;5045602;28;20306;-77
2022/10/12 12:22:13;;;;;;;15.75;7.18;;;17.00;99.90;;;;;;5043689;28;20393;-76
2022/10/12 12:24:49;;;;;;;17.25;7.22;;;17.10;99.90;;;;;;5048180;28;20033;-76
2022/10/12 12:27:43;;;;;;;16.52;7.85;;;17.10;99.90;;;;;;5035562;28;20021;-76
2022/10/12 12:30:18;;;;;;;17.27;7.70;;;17.20;99.90;;;;;;5044574;28;20079;-76
2022/10/12 12:32:48;;;;;;;13.13;7.05;;;17.20;99.90;;;;;;5063098;28;20072;-76
2022/10/12 12:35:27;;;;;;;15.52;7.28;;;17.20;99.90;;;;;;5057167;28;20100;-77
2022/10/12 12:38:24;;;;;;;12.07;6.45;;;17.20;99.90;;;;;;5040799;28;20116;-76
2022/10/12 12:41:00;;;;;;;20.05;7.85;;;17.20;99.90;;;;;;5047850;28;20029;-77
2022/10/12 12:43:28;;;;;;;13.20;7.25;;;17.30;99.90;;;;;;5047702;28;20032;-75
2022/10/12 12:46:10;;;;;;;14.80;7.90;;;17.30;99.90;;;;;;5044337;28;20028;-77
2022/10/12 12:48:41;;;;;;;14.10;7.07;;;17.40;99.90;;;;;;5047752;28;20482;-76